TimeEDT,TemperatureF,Dew PointF,Humidity,Sea Level PressureIn,VisibilityMPH,Wind Direction,Wind SpeedMPH,Gust SpeedMPH,PrecipitationIn,Events,Conditions,WindDirDegrees,DateUTC
12:56 AM,64.0,61.0,90,30.07,9.0,Calm,Calm,-,N/A,,Clear,0,2013-08-30 04:56:00
1:12 AM,62.6,60.8,94,30.10,1.2,Calm,Calm,-,N/A,,Clear,0,2013-08-30 05:12:00
1:19 AM,62.6,60.8,94,30.10,1.0,Calm,Calm,-,N/A,,Mist,0,2013-08-30 05:19:00
1:22 AM,62.6,60.8,94,30.10,2.0,Calm,Calm,-,N/A,,Clear,0,2013-08-30 05:22:00
1:28 AM,62.6,60.8,94,30.10,0.8,Calm,Calm,-,N/A,,Clear,0,2013-08-30 05:28:00
1:34 AM,60.8,60.8,100,30.10,0.2,Calm,Calm,-,N/A,Fog,Fog,0,2013-08-30 05:34:00
1:45 AM,60.8,60.8,100,30.09,0.5,East,3.5,-,N/A,Fog,Fog,100,2013-08-30 05:45:00
1:56 AM,60.1,59.0,96,30.06,0.5,Calm,Calm,-,N/A,Fog,Fog,0,2013-08-30 05:56:00
2:06 AM,60.8,59.0,94,30.09,0.2,Calm,Calm,-,N/A,Fog,Fog,0,2013-08-30 06:06:00
2:30 AM,60.8,60.8,100,30.09,0.8,Calm,Calm,-,N/A,,Mist,0,2013-08-30 06:30:00
2:42 AM,60.8,59.0,94,30.09,1.2,Calm,Calm,-,N/A,,Partly Cloudy,0,2013-08-30 06:42:00
2:45 AM,60.8,59.0,94,30.09,3.0,Calm,Calm,-,N/A,,Clear,0,2013-08-30 06:45:00
2:56 AM,61.0,60.1,97,30.06,2.5,Calm,Calm,-,N/A,,Clear,0,2013-08-30 06:56:00
3:03 AM,60.8,60.8,100,30.08,1.0,Calm,Calm,-,N/A,,Mist,0,2013-08-30 07:03:00
3:08 AM,59.0,57.2,94,30.08,0.2,Calm,Calm,-,N/A,Fog,Fog,0,2013-08-30 07:08:00
3:33 AM,60.8,59.0,94,30.08,0.5,Calm,Calm,-,N/A,Fog,Fog,0,2013-08-30 07:33:00
3:56 AM,57.9,57.0,97,30.05,0.5,Calm,Calm,-,N/A,Fog,Fog,0,2013-08-30 07:56:00
4:03 AM,57.2,57.2,100,30.08,0.2,Calm,Calm,-,N/A,Fog,Fog,0,2013-08-30 08:03:00
4:56 AM,57.0,55.9,96,30.04,0.2,Calm,Calm,-,N/A,Fog,Fog,0,2013-08-30 08:56:00
5:23 AM,57.2,57.2,100,30.07,1.0,Calm,Calm,-,N/A,,Mist,0,2013-08-30 09:23:00
5:36 AM,55.4,55.4,100,30.07,0.5,Calm,Calm,-,N/A,Fog,Fog,0,2013-08-30 09:36:00
5:56 AM,57.0,55.9,96,30.05,0.2,Calm,Calm,-,N/A,Fog,Fog,0,2013-08-30 09:56:00
6:09 AM,57.2,55.4,94,30.07,0.5,Calm,Calm,-,0.01,Fog,Fog,0,2013-08-30 10:09:00
6:20 AM,55.4,53.6,94,30.07,0.2,Calm,Calm,-,0.01,Fog,Fog,0,2013-08-30 10:20:00
6:32 AM,55.4,53.6,94,30.07,0.8,Calm,Calm,-,0.01,,Mist,0,2013-08-30 10:32:00
6:42 AM,55.4,55.4,100,30.07,0.2,Calm,Calm,-,0.01,Fog,Fog,0,2013-08-30 10:42:00
6:56 AM,55.0,54.0,96,30.04,0.2,Calm,Calm,-,0.01,Fog,Fog,0,2013-08-30 10:56:00
7:43 AM,57.2,55.4,94,30.07,1.0,Calm,Calm,-,N/A,,Mist,0,2013-08-30 11:43:00
7:56 AM,57.0,57.0,100,30.05,0.5,Calm,Calm,-,N/A,Fog,Fog,0,2013-08-30 11:56:00
8:04 AM,57.2,57.2,100,30.08,0.2,Calm,Calm,-,N/A,Fog,Fog,0,2013-08-30 12:04:00
8:18 AM,60.8,59.0,94,30.08,0.5,Calm,Calm,-,N/A,Fog,Fog,0,2013-08-30 12:18:00
8:27 AM,60.8,59.0,94,30.08,0.2,Calm,Calm,-,N/A,Fog,Fog,0,2013-08-30 12:27:00
8:54 AM,60.8,60.8,100,30.07,1.0,Calm,Calm,-,N/A,,Mist,0,2013-08-30 12:54:00
8:56 AM,62.1,61.0,96,30.05,2.5,Calm,Calm,-,N/A,,Mostly Cloudy,0,2013-08-30 12:56:00
9:00 AM,62.6,60.8,94,30.07,4.0,Calm,Calm,-,N/A,,Scattered Clouds,0,2013-08-30 13:00:00
9:56 AM,69.1,64.9,87,30.04,10.0,Calm,Calm,-,N/A,,Clear,0,2013-08-30 13:56:00
10:56 AM,75.0,63.0,66,30.01,10.0,WSW,6.9,-,N/A,,Clear,250,2013-08-30 14:56:00
11:56 AM,77.0,63.0,62,30.00,10.0,WSW,9.2,-,N/A,,Clear,240,2013-08-30 15:56:00
12:56 PM,75.9,61.0,60,29.98,10.0,West,11.5,-,N/A,,Mostly Cloudy,270,2013-08-30 16:56:00
1:56 PM,79.0,64.0,60,29.97,10.0,WSW,8.1,-,N/A,,Scattered Clouds,250,2013-08-30 17:56:00
2:56 PM,81.0,63.0,54,29.94,10.0,West,11.5,16.1,N/A,,Partly Cloudy,280,2013-08-30 18:56:00
3:56 PM,79.0,61.0,54,29.94,10.0,SW,11.5,-,N/A,,Clear,230,2013-08-30 19:56:00
4:56 PM,78.1,63.0,60,29.91,10.0,WSW,8.1,-,0.00,,Partly Cloudy,240,2013-08-30 20:56:00
5:56 PM,78.1,62.1,58,29.88,10.0,SSW,6.9,-,N/A,,Clear,210,2013-08-30 21:56:00
6:56 PM,75.9,61.0,60,29.89,10.0,SW,8.1,-,N/A,,Clear,230,2013-08-30 22:56:00
7:56 PM,73.9,61.0,64,29.88,10.0,SW,5.8,-,N/A,,Clear,220,2013-08-30 23:56:00
8:56 PM,73.0,62.1,68,29.89,10.0,SSW,3.5,-,N/A,,Partly Cloudy,210,2013-08-31 00:56:00
9:56 PM,72.0,63.0,73,29.88,10.0,SW,5.8,-,N/A,,Clear,220,2013-08-31 01:56:00
10:56 PM,72.0,64.0,76,29.85,10.0,SSW,6.9,-,N/A,,Clear,200,2013-08-31 02:56:00
11:56 PM,71.1,64.9,81,29.85,10.0,Variable,3.5,-,N/A,,Mostly Cloudy,0,2013-08-31 03:56:00